sensor_id;sensor_type;location;lat;lon;timestamp;P1;durP1;ratioP1;P2;durP2;ratioP2
51738;SDS011;37815;52.692;6.226;2022-10-26T00:04:59;3.60;;;2.30;;
51738;SDS011;37815;52.692;6.226;2022-10-26T00:10:00;3.70;;;2.53;;
51738;SDS011;37815;52.692;6.226;2022-10-26T00:15:00;5.53;;;2.15;;
51738;SDS011;37815;52.692;6.226;2022-10-26T00:20:01;3.10;;;2.35;;
51738;SDS011;37815;52.692;6.226;2022-10-26T00:25:02;4.68;;;2.30;;
51738;SDS011;37815;52.692;6.226;2022-10-26T00:30:03;5.55;;;2.65;;
51738;SDS011;37815;52.692;6.226;2022-10-26T00:35:05;5.15;;;2.38;;
51738;SDS011;37815;52.692;6.226;2022-10-26T00:40:06;4.07;;;2.75;;
51738;SDS011;37815;52.692;6.226;2022-10-26T00:45:15;6.38;;;2.75;;
51738;SDS011;37815;52.692;6.226;2022-10-26T00:50:21;3.88;;;2.55;;
51738;SDS011;37815;52.692;6.226;2022-10-26T00:55:27;4.35;;;2.50;;
51738;SDS011;37815;52.692;6.226;2022-10-26T01:00:31;3.83;;;2.47;;
51738;SDS011;37815;52.692;6.226;2022-10-26T01:05:32;3.42;;;2.05;;
51738;SDS011;37815;52.692;6.226;2022-10-26T01:10:35;3.53;;;2.30;;
51738;SDS011;37815;52.692;6.226;2022-10-26T01:15:43;6.75;;;2.53;;
51738;SDS011;37815;52.692;6.226;2022-10-26T01:21:04;2.88;;;2.15;;
51738;SDS011;37815;52.692;6.226;2022-10-26T01:31:52;4.65;;;2.13;;
51738;SDS011;37815;52.692;6.226;2022-10-26T01:36:59;5.13;;;2.70;;
51738;SDS011;37815;52.692;6.226;2022-10-26T01:42:10;4.82;;;2.53;;
51738;SDS011;37815;52.692;6.226;2022-10-26T01:47:14;5.85;;;2.90;;
51738;SDS011;37815;52.692;6.226;2022-10-26T01:52:17;5.80;;;3.03;;
51738;SDS011;37815;52.692;6.226;2022-10-26T01:57:19;4.15;;;2.80;;
51738;SDS011;37815;52.692;6.226;2022-10-26T02:02:36;4.75;;;2.92;;
51738;SDS011;37815;52.692;6.226;2022-10-26T02:18:39;3.50;;;2.70;;
51738;SDS011;37815;52.692;6.226;2022-10-26T02:23:47;3.35;;;2.65;;
51738;SDS011;37815;52.692;6.226;2022-10-26T02:28:50;6.13;;;2.80;;
51738;SDS011;37815;52.692;6.226;2022-10-26T02:33:56;8.32;;;3.05;;
51738;SDS011;37815;52.692;6.226;2022-10-26T02:39:00;4.97;;;2.80;;
51738;SDS011;37815;52.692;6.226;2022-10-26T02:44:25;6.35;;;3.10;;
51738;SDS011;37815;52.692;6.226;2022-10-26T02:49:33;3.35;;;2.40;;
51738;SDS011;37815;52.692;6.226;2022-10-26T02:59:46;3.85;;;2.85;;
51738;SDS011;37815;52.692;6.226;2022-10-26T03:04:48;7.38;;;3.22;;
51738;SDS011;37815;52.692;6.226;2022-10-26T03:09:50;4.25;;;2.85;;
51738;SDS011;37815;52.692;6.226;2022-10-26T03:14:50;5.18;;;3.00;;
51738;SDS011;37815;52.692;6.226;2022-10-26T03:19:51;4.70;;;3.00;;
51738;SDS011;37815;52.692;6.226;2022-10-26T03:24:52;5.68;;;3.50;;
51738;SDS011;37815;52.692;6.226;2022-10-26T03:29:53;6.32;;;3.60;;
51738;SDS011;37815;52.692;6.226;2022-10-26T03:34:53;3.55;;;2.47;;
51738;SDS011;37815;52.692;6.226;2022-10-26T03:39:54;4.85;;;3.28;;
51738;SDS011;37815;52.692;6.226;2022-10-26T03:44:55;6.38;;;3.53;;
51738;SDS011;37815;52.692;6.226;2022-10-26T03:49:55;5.50;;;3.50;;
51738;SDS011;37815;52.692;6.226;2022-10-26T03:54:56;5.28;;;3.45;;
51738;SDS011;37815;52.692;6.226;2022-10-26T03:59:57;8.15;;;3.83;;
51738;SDS011;37815;52.692;6.226;2022-10-26T04:04:58;5.53;;;3.33;;
51738;SDS011;37815;52.692;6.226;2022-10-26T04:09:59;6.38;;;3.17;;
51738;SDS011;37815;52.692;6.226;2022-10-26T04:15:00;5.53;;;3.42;;
51738;SDS011;37815;52.692;6.226;2022-10-26T04:20:01;5.88;;;3.50;;
51738;SDS011;37815;52.692;6.226;2022-10-26T04:25:02;6.05;;;3.53;;
51738;SDS011;37815;52.692;6.226;2022-10-26T04:30:04;6.80;;;3.80;;
51738;SDS011;37815;52.692;6.226;2022-10-26T04:35:08;5.55;;;3.75;;
51738;SDS011;37815;52.692;6.226;2022-10-26T04:40:09;5.38;;;3.40;;
51738;SDS011;37815;52.692;6.226;2022-10-26T04:45:10;7.90;;;4.38;;
51738;SDS011;37815;52.692;6.226;2022-10-26T04:50:12;6.45;;;3.42;;
51738;SDS011;37815;52.692;6.226;2022-10-26T04:55:13;5.15;;;3.50;;
51738;SDS011;37815;52.692;6.226;2022-10-26T05:00:14;6.18;;;3.33;;
51738;SDS011;37815;52.692;6.226;2022-10-26T05:05:15;9.13;;;3.70;;
51738;SDS011;37815;52.692;6.226;2022-10-26T05:10:16;6.88;;;3.65;;
51738;SDS011;37815;52.692;6.226;2022-10-26T05:15:16;6.82;;;3.75;;
51738;SDS011;37815;52.692;6.226;2022-10-26T05:20:17;5.88;;;3.40;;
51738;SDS011;37815;52.692;6.226;2022-10-26T05:25:18;5.55;;;3.50;;
51738;SDS011;37815;52.692;6.226;2022-10-26T05:30:19;7.55;;;3.88;;
51738;SDS011;37815;52.692;6.226;2022-10-26T05:35:19;8.52;;;4.18;;
51738;SDS011;37815;52.692;6.226;2022-10-26T05:40:20;6.45;;;3.90;;
51738;SDS011;37815;52.692;6.226;2022-10-26T05:45:21;5.55;;;3.25;;
51738;SDS011;37815;52.692;6.226;2022-10-26T05:50:22;8.02;;;4.25;;
51738;SDS011;37815;52.692;6.226;2022-10-26T05:55:23;8.13;;;4.00;;
51738;SDS011;37815;52.692;6.226;2022-10-26T06:00:25;6.55;;;3.97;;
51738;SDS011;37815;52.692;6.226;2022-10-26T06:05:27;6.78;;;3.83;;
51738;SDS011;37815;52.692;6.226;2022-10-26T06:10:32;6.15;;;3.88;;
51738;SDS011;37815;52.692;6.226;2022-10-26T06:15:35;5.97;;;3.35;;
51738;SDS011;37815;52.692;6.226;2022-10-26T06:20:54;8.48;;;3.67;;
51738;SDS011;37815;52.692;6.226;2022-10-26T06:26:32;6.47;;;3.17;;
51738;SDS011;37815;52.692;6.226;2022-10-26T06:31:34;7.25;;;3.85;;
51738;SDS011;37815;52.692;6.226;2022-10-26T06:36:35;12.85;;;3.70;;
51738;SDS011;37815;52.692;6.226;2022-10-26T06:41:39;6.65;;;3.83;;
51738;SDS011;37815;52.692;6.226;2022-10-26T06:46:42;7.65;;;3.72;;
51738;SDS011;37815;52.692;6.226;2022-10-26T06:57:09;10.88;;;3.25;;
51738;SDS011;37815;52.692;6.226;2022-10-26T07:02:12;6.05;;;3.55;;
51738;SDS011;37815;52.692;6.226;2022-10-26T07:07:17;7.32;;;3.13;;
51738;SDS011;37815;52.692;6.226;2022-10-26T07:12:20;5.47;;;3.15;;
51738;SDS011;37815;52.692;6.226;2022-10-26T07:17:21;8.77;;;3.28;;
51738;SDS011;37815;52.692;6.226;2022-10-26T07:22:23;6.10;;;3.47;;
51738;SDS011;37815;52.692;6.226;2022-10-26T07:27:24;6.18;;;3.60;;
51738;SDS011;37815;52.692;6.226;2022-10-26T07:32:25;4.90;;;3.30;;
51738;SDS011;37815;52.692;6.226;2022-10-26T07:37:25;6.50;;;3.25;;
51738;SDS011;37815;52.692;6.226;2022-10-26T07:42:26;6.88;;;3.38;;
51738;SDS011;37815;52.692;6.226;2022-10-26T07:47:27;7.30;;;3.13;;
51738;SDS011;37815;52.692;6.226;2022-10-26T07:52:28;6.85;;;3.22;;
51738;SDS011;37815;52.692;6.226;2022-10-26T07:57:29;6.47;;;3.25;;
51738;SDS011;37815;52.692;6.226;2022-10-26T08:02:29;5.75;;;3.08;;
51738;SDS011;37815;52.692;6.226;2022-10-26T08:07:30;5.53;;;2.83;;
51738;SDS011;37815;52.692;6.226;2022-10-26T08:12:31;5.45;;;2.83;;
51738;SDS011;37815;52.692;6.226;2022-10-26T08:17:32;7.47;;;3.10;;
51738;SDS011;37815;52.692;6.226;2022-10-26T08:22:33;6.07;;;2.90;;
51738;SDS011;37815;52.692;6.226;2022-10-26T08:27:34;4.03;;;2.60;;
51738;SDS011;37815;52.692;6.226;2022-10-26T08:32:34;4.55;;;2.70;;
51738;SDS011;37815;52.692;6.226;2022-10-26T08:37:35;4.53;;;2.45;;
51738;SDS011;37815;52.692;6.226;2022-10-26T08:42:37;4.55;;;2.28;;
51738;SDS011;37815;52.692;6.226;2022-10-26T08:47:45;8.32;;;3.25;;
51738;SDS011;37815;52.692;6.226;2022-10-26T08:52:55;8.50;;;3.30;;
51738;SDS011;37815;52.692;6.226;2022-10-26T08:58:01;8.88;;;3.60;;
51738;SDS011;37815;52.692;6.226;2022-10-26T09:03:16;9.80;;;3.22;;
51738;SDS011;37815;52.692;6.226;2022-10-26T09:24:49;5.28;;;2.60;;
51738;SDS011;37815;52.692;6.226;2022-10-26T09:29:54;5.47;;;2.35;;
51738;SDS011;37815;52.692;6.226;2022-10-26T09:34:58;3.67;;;2.25;;
51738;SDS011;37815;52.692;6.226;2022-10-26T09:40:13;5.03;;;2.03;;
51738;SDS011;37815;52.692;6.226;2022-10-26T09:45:30;4.53;;;2.28;;
51738;SDS011;37815;52.692;6.226;2022-10-26T09:50:38;6.82;;;2.00;;
51738;SDS011;37815;52.692;6.226;2022-10-26T09:55:42;4.32;;;2.30;;
51738;SDS011;37815;52.692;6.226;2022-10-26T10:00:45;4.00;;;2.25;;
51738;SDS011;37815;52.692;6.226;2022-10-26T10:05:46;5.28;;;2.20;;
51738;SDS011;37815;52.692;6.226;2022-10-26T10:10:54;3.97;;;2.13;;
51738;SDS011;37815;52.692;6.226;2022-10-26T10:16:05;4.82;;;2.20;;
51738;SDS011;37815;52.692;6.226;2022-10-26T10:21:19;6.20;;;2.05;;
51738;SDS011;37815;52.692;6.226;2022-10-26T10:26:20;5.65;;;2.08;;
51738;SDS011;37815;52.692;6.226;2022-10-26T10:31:25;8.38;;;2.13;;
51738;SDS011;37815;52.692;6.226;2022-10-26T10:36:28;3.13;;;2.05;;
51738;SDS011;37815;52.692;6.226;2022-10-26T10:41:29;6.82;;;2.35;;
51738;SDS011;37815;52.692;6.226;2022-10-26T10:46:36;6.90;;;2.40;;
51738;SDS011;37815;52.692;6.226;2022-10-26T10:51:38;3.72;;;2.20;;
51738;SDS011;37815;52.692;6.226;2022-10-26T10:56:40;3.30;;;2.10;;
51738;SDS011;37815;52.692;6.226;2022-10-26T11:07:05;3.67;;;2.00;;
51738;SDS011;37815;52.692;6.226;2022-10-26T11:12:17;3.55;;;2.03;;
51738;SDS011;37815;52.692;6.226;2022-10-26T11:17:24;7.78;;;2.92;;
51738;SDS011;37815;52.692;6.226;2022-10-26T11:23:22;4.55;;;2.60;;
51738;SDS011;37815;52.692;6.226;2022-10-26T11:50:29;6.07;;;2.50;;
51738;SDS011;37815;52.692;6.226;2022-10-26T11:55:33;4.57;;;2.35;;
51738;SDS011;37815;52.692;6.226;2022-10-26T12:00:43;5.63;;;2.45;;
51738;SDS011;37815;52.692;6.226;2022-10-26T12:05:49;5.68;;;2.40;;
51738;SDS011;37815;52.692;6.226;2022-10-26T12:11:04;6.88;;;2.58;;
51738;SDS011;37815;52.692;6.226;2022-10-26T12:16:18;4.72;;;2.25;;
51738;SDS011;37815;52.692;6.226;2022-10-26T12:21:32;6.65;;;2.63;;
51738;SDS011;37815;52.692;6.226;2022-10-26T12:41:58;5.35;;;3.45;;
51738;SDS011;37815;52.692;6.226;2022-10-26T12:47:09;10.75;;;3.83;;
51738;SDS011;37815;52.692;6.226;2022-10-26T13:08:39;5.57;;;3.97;;
51738;SDS011;37815;52.692;6.226;2022-10-26T13:13:41;8.85;;;4.40;;
51738;SDS011;37815;52.692;6.226;2022-10-26T13:18:43;7.50;;;4.32;;
51738;SDS011;37815;52.692;6.226;2022-10-26T13:23:54;9.65;;;3.90;;
51738;SDS011;37815;52.692;6.226;2022-10-26T13:29:02;10.63;;;3.92;;
51738;SDS011;37815;52.692;6.226;2022-10-26T13:39:14;11.48;;;3.95;;
51738;SDS011;37815;52.692;6.226;2022-10-26T13:44:22;9.15;;;4.28;;
51738;SDS011;37815;52.692;6.226;2022-10-26T13:49:39;8.57;;;4.97;;
51738;SDS011;37815;52.692;6.226;2022-10-26T13:59:53;7.80;;;4.13;;
51738;SDS011;37815;52.692;6.226;2022-10-26T14:05:00;11.05;;;4.22;;
51738;SDS011;37815;52.692;6.226;2022-10-26T14:10:03;6.53;;;4.10;;
51738;SDS011;37815;52.692;6.226;2022-10-26T14:15:07;11.20;;;4.15;;
51738;SDS011;37815;52.692;6.226;2022-10-26T14:20:15;7.78;;;4.00;;
51738;SDS011;37815;52.692;6.226;2022-10-26T14:25:25;7.65;;;4.00;;
51738;SDS011;37815;52.692;6.226;2022-10-26T14:30:29;5.38;;;4.10;;
51738;SDS011;37815;52.692;6.226;2022-10-26T14:35:32;6.63;;;4.40;;
51738;SDS011;37815;52.692;6.226;2022-10-26T14:40:41;6.78;;;3.92;;
51738;SDS011;37815;52.692;6.226;2022-10-26T14:45:46;5.53;;;3.75;;
51738;SDS011;37815;52.692;6.226;2022-10-26T15:01:50;5.45;;;3.67;;
51738;SDS011;37815;52.692;6.226;2022-10-26T15:07:01;5.35;;;3.33;;
51738;SDS011;37815;52.692;6.226;2022-10-26T15:12:16;8.63;;;3.63;;
51738;SDS011;37815;52.692;6.226;2022-10-26T15:17:31;10.27;;;3.67;;
51738;SDS011;37815;52.692;6.226;2022-10-26T15:22:36;5.40;;;3.13;;
51738;SDS011;37815;52.692;6.226;2022-10-26T15:27:38;5.82;;;3.58;;
51738;SDS011;37815;52.692;6.226;2022-10-26T15:32:40;3.78;;;3.35;;
51738;SDS011;37815;52.692;6.226;2022-10-26T15:37:41;5.95;;;3.17;;
51738;SDS011;37815;52.692;6.226;2022-10-26T15:42:42;6.95;;;3.58;;
51738;SDS011;37815;52.692;6.226;2022-10-26T15:47:44;6.97;;;3.42;;
51738;SDS011;37815;52.692;6.226;2022-10-26T15:52:46;4.82;;;3.05;;
51738;SDS011;37815;52.692;6.226;2022-10-26T15:57:49;6.65;;;3.30;;
51738;SDS011;37815;52.692;6.226;2022-10-26T16:02:49;7.45;;;3.40;;
51738;SDS011;37815;52.692;6.226;2022-10-26T16:07:50;5.80;;;3.00;;
51738;SDS011;37815;52.692;6.226;2022-10-26T16:12:51;3.63;;;3.20;;
51738;SDS011;37815;52.692;6.226;2022-10-26T16:17:52;3.67;;;3.25;;
51738;SDS011;37815;52.692;6.226;2022-10-26T16:22:53;4.38;;;2.92;;
51738;SDS011;37815;52.692;6.226;2022-10-26T16:27:54;6.68;;;3.03;;
51738;SDS011;37815;52.692;6.226;2022-10-26T16:32:55;5.30;;;2.72;;
51738;SDS011;37815;52.692;6.226;2022-10-26T16:37:55;5.32;;;3.30;;
51738;SDS011;37815;52.692;6.226;2022-10-26T16:42:57;5.80;;;3.10;;
51738;SDS011;37815;52.692;6.226;2022-10-26T16:47:58;6.07;;;2.70;;
51738;SDS011;37815;52.692;6.226;2022-10-26T16:52:59;8.35;;;3.72;;
51738;SDS011;37815;52.692;6.226;2022-10-26T16:57:59;11.10;;;4.80;;
51738;SDS011;37815;52.692;6.226;2022-10-26T17:03:00;8.57;;;3.78;;
51738;SDS011;37815;52.692;6.226;2022-10-26T17:08:01;8.75;;;4.03;;
51738;SDS011;37815;52.692;6.226;2022-10-26T17:13:02;10.27;;;4.63;;
51738;SDS011;37815;52.692;6.226;2022-10-26T17:18:03;7.95;;;4.05;;
51738;SDS011;37815;52.692;6.226;2022-10-26T17:23:04;6.00;;;3.70;;
51738;SDS011;37815;52.692;6.226;2022-10-26T17:28:05;9.35;;;3.78;;
51738;SDS011;37815;52.692;6.226;2022-10-26T17:33:06;8.27;;;3.60;;
51738;SDS011;37815;52.692;6.226;2022-10-26T17:38:07;4.55;;;3.25;;
51738;SDS011;37815;52.692;6.226;2022-10-26T17:43:08;6.40;;;3.33;;
51738;SDS011;37815;52.692;6.226;2022-10-26T17:48:08;5.75;;;3.88;;
51738;SDS011;37815;52.692;6.226;2022-10-26T17:53:09;7.00;;;3.30;;
51738;SDS011;37815;52.692;6.226;2022-10-26T17:58:10;6.03;;;3.47;;
51738;SDS011;37815;52.692;6.226;2022-10-26T18:03:10;3.75;;;3.42;;
51738;SDS011;37815;52.692;6.226;2022-10-26T18:08:11;6.30;;;3.70;;
51738;SDS011;37815;52.692;6.226;2022-10-26T18:13:12;5.07;;;3.70;;
51738;SDS011;37815;52.692;6.226;2022-10-26T18:18:12;8.40;;;3.85;;
51738;SDS011;37815;52.692;6.226;2022-10-26T18:23:14;4.40;;;3.47;;
51738;SDS011;37815;52.692;6.226;2022-10-26T18:28:14;6.50;;;3.80;;
51738;SDS011;37815;52.692;6.226;2022-10-26T18:33:15;4.82;;;3.75;;
51738;SDS011;37815;52.692;6.226;2022-10-26T18:38:16;3.95;;;3.55;;
51738;SDS011;37815;52.692;6.226;2022-10-26T18:43:16;5.10;;;3.58;;
51738;SDS011;37815;52.692;6.226;2022-10-26T18:48:17;4.97;;;3.75;;
51738;SDS011;37815;52.692;6.226;2022-10-26T18:53:18;4.25;;;3.85;;
51738;SDS011;37815;52.692;6.226;2022-10-26T18:58:19;6.13;;;4.35;;
51738;SDS011;37815;52.692;6.226;2022-10-26T19:03:19;4.40;;;3.70;;
51738;SDS011;37815;52.692;6.226;2022-10-26T19:08:20;9.18;;;4.10;;
51738;SDS011;37815;52.692;6.226;2022-10-26T19:13:20;4.00;;;3.60;;
51738;SDS011;37815;52.692;6.226;2022-10-26T19:18:21;4.90;;;3.95;;
51738;SDS011;37815;52.692;6.226;2022-10-26T19:23:22;5.65;;;3.72;;
51738;SDS011;37815;52.692;6.226;2022-10-26T19:28:23;4.85;;;4.20;;
51738;SDS011;37815;52.692;6.226;2022-10-26T19:33:24;4.90;;;3.80;;
51738;SDS011;37815;52.692;6.226;2022-10-26T19:38:26;5.35;;;3.47;;
51738;SDS011;37815;52.692;6.226;2022-10-26T19:43:27;5.18;;;3.75;;
51738;SDS011;37815;52.692;6.226;2022-10-26T19:48:29;4.75;;;3.63;;
51738;SDS011;37815;52.692;6.226;2022-10-26T19:53:30;5.32;;;3.88;;
51738;SDS011;37815;52.692;6.226;2022-10-26T19:58:31;5.03;;;3.83;;
51738;SDS011;37815;52.692;6.226;2022-10-26T20:03:32;4.47;;;3.80;;
51738;SDS011;37815;52.692;6.226;2022-10-26T20:08:33;3.88;;;3.58;;
51738;SDS011;37815;52.692;6.226;2022-10-26T20:13:37;5.35;;;3.80;;
51738;SDS011;37815;52.692;6.226;2022-10-26T20:18:39;4.05;;;3.55;;
51738;SDS011;37815;52.692;6.226;2022-10-26T20:23:40;4.75;;;3.88;;
51738;SDS011;37815;52.692;6.226;2022-10-26T20:28:44;4.13;;;3.65;;
51738;SDS011;37815;52.692;6.226;2022-10-26T20:33:49;4.05;;;3.47;;
51738;SDS011;37815;52.692;6.226;2022-10-26T20:38:51;4.57;;;3.75;;
51738;SDS011;37815;52.692;6.226;2022-10-26T20:43:52;4.95;;;3.58;;
51738;SDS011;37815;52.692;6.226;2022-10-26T20:48:55;5.70;;;3.83;;
51738;SDS011;37815;52.692;6.226;2022-10-26T20:54:01;4.35;;;3.40;;
51738;SDS011;37815;52.692;6.226;2022-10-26T21:04:48;4.53;;;3.47;;
51738;SDS011;37815;52.692;6.226;2022-10-26T21:09:49;5.00;;;3.88;;
51738;SDS011;37815;52.692;6.226;2022-10-26T21:14:49;5.15;;;3.35;;
51738;SDS011;37815;52.692;6.226;2022-10-26T21:19:50;5.75;;;3.35;;
51738;SDS011;37815;52.692;6.226;2022-10-26T21:24:51;4.43;;;3.42;;
51738;SDS011;37815;52.692;6.226;2022-10-26T21:29:52;5.20;;;3.33;;
51738;SDS011;37815;52.692;6.226;2022-10-26T21:34:53;3.55;;;3.17;;
51738;SDS011;37815;52.692;6.226;2022-10-26T21:39:53;4.75;;;3.08;;
51738;SDS011;37815;52.692;6.226;2022-10-26T21:44:54;3.85;;;3.10;;
51738;SDS011;37815;52.692;6.226;2022-10-26T21:49:55;4.10;;;2.63;;
51738;SDS011;37815;52.692;6.226;2022-10-26T21:54:56;4.00;;;3.15;;
51738;SDS011;37815;52.692;6.226;2022-10-26T21:59:57;3.70;;;3.03;;
51738;SDS011;37815;52.692;6.226;2022-10-26T22:04:57;4.10;;;2.80;;
51738;SDS011;37815;52.692;6.226;2022-10-26T22:09:58;3.47;;;2.70;;
51738;SDS011;37815;52.692;6.226;2022-10-26T22:14:59;3.03;;;2.70;;
51738;SDS011;37815;52.692;6.226;2022-10-26T22:19:59;5.63;;;2.90;;
51738;SDS011;37815;52.692;6.226;2022-10-26T22:25:00;5.63;;;3.30;;
51738;SDS011;37815;52.692;6.226;2022-10-26T22:30:01;4.10;;;2.58;;
51738;SDS011;37815;52.692;6.226;2022-10-26T22:35:02;4.45;;;3.00;;
51738;SDS011;37815;52.692;6.226;2022-10-26T22:40:03;5.20;;;2.72;;
51738;SDS011;37815;52.692;6.226;2022-10-26T22:45:04;4.28;;;2.55;;
51738;SDS011;37815;52.692;6.226;2022-10-26T22:50:05;2.72;;;2.40;;
51738;SDS011;37815;52.692;6.226;2022-10-26T22:55:06;3.42;;;2.75;;
51738;SDS011;37815;52.692;6.226;2022-10-26T23:00:07;4.15;;;2.70;;
51738;SDS011;37815;52.692;6.226;2022-10-26T23:05:08;4.88;;;2.75;;
51738;SDS011;37815;52.692;6.226;2022-10-26T23:10:09;4.10;;;2.50;;
51738;SDS011;37815;52.692;6.226;2022-10-26T23:15:09;4.95;;;2.90;;
51738;SDS011;37815;52.692;6.226;2022-10-26T23:20:10;3.20;;;2.58;;
51738;SDS011;37815;52.692;6.226;2022-10-26T23:25:11;4.72;;;2.65;;
51738;SDS011;37815;52.692;6.226;2022-10-26T23:30:12;5.28;;;2.72;;
51738;SDS011;37815;52.692;6.226;2022-10-26T23:35:12;5.63;;;2.60;;
51738;SDS011;37815;52.692;6.226;2022-10-26T23:40:13;4.03;;;2.28;;
51738;SDS011;37815;52.692;6.226;2022-10-26T23:45:14;2.92;;;2.33;;
51738;SDS011;37815;52.692;6.226;2022-10-26T23:50:15;3.55;;;2.50;;
51738;SDS011;37815;52.692;6.226;2022-10-26T23:55:16;3.45;;;2.40;;
